Time;durP1;ratioP1;P1;durP2;ratioP2;P2;SDS_P1;SDS_P2;PMS_P1;PMS_P2;Temp;Humidity;BMP_temperature;BMP_pressure;BME280_temperature;BME280_humidity;BME280_pressure;Samples;Min_cycle;Max_cycle;Signal;HPM_P1;HPM_P2
2021/12/12 00:00:15;;;;;;;36.55;20.92;;;;;;;;;;5060105;28;20044;-89
2021/12/12 00:03:10;;;;;;;37.22;20.35;;;;;;;;;;5059795;28;20048;-88
2021/12/12 00:05:33;;;;;;;37.63;20.73;;;;;;;;;;5059405;28;20025;-90
2021/12/12 00:08:00;;;;;;;34.17;20.20;;;;;;;;;;5059721;28;20029;-89
2021/12/12 00:10:28;;;;;;;37.90;19.90;;;;;;;;;;5059769;28;20025;-89
2021/12/12 00:12:56;;;;;;;38.15;20.83;;;;;;;;;;5058708;28;20430;-88
2021/12/12 00:15:22;;;;;;;35.50;19.85;;;;;;;;;;5059633;28;20067;-89
2021/12/12 00:17:49;;;;;;;34.13;19.33;;;;;;;;;;5058734;28;20036;-89
2021/12/12 00:20:17;;;;;;;34.90;19.45;;;;;;;;;;5058607;28;20017;-89
2021/12/12 00:22:43;;;;;;;34.90;20.05;;;;;;;;;;5058747;28;20021;-89
2021/12/12 00:25:10;;;;;;;31.77;19.75;;;;;;;;;;5058378;28;20025;-88
2021/12/12 00:27:36;;;;;;;34.28;20.33;;;;;;;;;;5059493;28;20013;-88
2021/12/12 00:30:03;;;;;;;33.90;19.70;;;;;;;;;;5058370;28;20030;-89
2021/12/12 00:32:31;;;;;;;35.97;21.23;;;;;;;;;;5059034;28;20017;-88
2021/12/12 00:35:01;;;;;;;34.92;20.25;;;;;;;;;;5059317;28;20426;-89
2021/12/12 00:37:28;;;;;;;36.10;20.17;;;;;;;;;;5059333;28;20059;-88
2021/12/12 00:39:59;;;;;;;38.42;21.38;;;;;;;;;;5058091;28;20021;-88
2021/12/12 00:45:29;;;;;;;36.08;19.90;;;;;;;;;;5059291;28;20341;-90
2021/12/12 00:47:56;;;;;;;33.42;19.13;;;;;;;;;;5058397;28;20017;-89
2021/12/12 00:50:28;;;;;;;34.00;19.92;;;;;;;;;;5058036;28;20033;-89
2021/12/12 00:52:54;;;;;;;37.25;20.15;;;;;;;;;;5057979;28;20415;-89
2021/12/12 00:55:21;;;;;;;34.05;20.30;;;;;;;;;;5058818;28;20055;-89
2021/12/12 00:57:52;;;;;;;31.90;19.48;;;;;;;;;;5057765;28;20037;-89
2021/12/12 01:00:19;;;;;;;37.78;20.58;;;;;;;;;;5058828;28;20094;-90
2021/12/12 01:02:45;;;;;;;35.47;19.08;;;;;;;;;;5057863;28;20089;-89
2021/12/12 01:05:14;;;;;;;35.15;20.17;;;;;;;;;;5058416;28;20021;-89
2021/12/12 01:07:42;;;;;;;35.08;19.83;;;;;;;;;;5057863;28;20439;-88
2021/12/12 01:10:22;;;;;;;34.00;19.85;;;;;;;;;;5058421;28;20029;-90
2021/12/12 01:12:49;;;;;;;33.30;19.52;;;;;;;;;;5058412;28;20013;-89
2021/12/12 01:15:18;;;;;;;36.38;20.10;;;;;;;;;;5058808;28;20023;-89
2021/12/12 01:17:46;;;;;;;30.48;18.27;;;;;;;;;;5057604;28;20477;-89
2021/12/12 01:20:15;;;;;;;34.65;19.63;;;;;;;;;;5057414;28;20021;-89
2021/12/12 01:22:43;;;;;;;31.17;18.77;;;;;;;;;;5057398;28;20025;-88
2021/12/12 01:25:20;;;;;;;34.20;19.05;;;;;;;;;;5057339;28;20101;-89
2021/12/12 01:27:47;;;;;;;35.80;19.25;;;;;;;;;;5058557;28;20410;-90
2021/12/12 01:30:14;;;;;;;30.23;18.65;;;;;;;;;;5057118;28;20033;-89
2021/12/12 01:32:41;;;;;;;33.83;18.77;;;;;;;;;;5058183;28;20025;-89
2021/12/12 01:35:14;;;;;;;33.13;19.00;;;;;;;;;;5057139;28;20074;-89
2021/12/12 01:37:43;;;;;;;35.40;18.85;;;;;;;;;;5058445;28;20074;-88
2021/12/12 01:40:15;;;;;;;33.05;18.70;;;;;;;;;;5040844;28;20354;-88
2021/12/12 01:42:46;;;;;;;31.30;18.58;;;;;;;;;;5057057;28;20021;-89
2021/12/12 01:45:19;;;;;;;32.17;18.52;;;;;;;;;;5058293;28;20048;-89
2021/12/12 01:47:49;;;;;;;35.33;18.83;;;;;;;;;;5058107;28;20032;-89
2021/12/12 01:50:18;;;;;;;33.03;18.63;;;;;;;;;;5057624;28;20056;-90
2021/12/12 01:52:45;;;;;;;29.85;17.42;;;;;;;;;;5057776;28;20411;-89
2021/12/12 01:55:22;;;;;;;33.67;19.35;;;;;;;;;;5058035;28;20075;-89
2021/12/12 01:57:49;;;;;;;34.28;19.27;;;;;;;;;;5056708;28;20017;-90
2021/12/12 02:00:35;;;;;;;30.17;17.45;;;;;;;;;;5057557;28;20121;-89
2021/12/12 02:03:02;;;;;;;33.35;17.67;;;;;;;;;;5057268;28;20040;-90
2021/12/12 02:05:28;;;;;;;30.02;18.08;;;;;;;;;;5057439;28;20021;-90
2021/12/12 02:07:58;;;;;;;34.78;18.77;;;;;;;;;;5056646;28;20025;-90
2021/12/12 02:10:36;;;;;;;31.58;18.38;;;;;;;;;;5057897;28;20033;-90
2021/12/12 02:13:04;;;;;;;32.20;18.05;;;;;;;;;;5057709;28;20021;-89
2021/12/12 02:15:33;;;;;;;32.25;17.95;;;;;;;;;;5057867;28;20120;-89
2021/12/12 02:17:59;;;;;;;31.05;18.60;;;;;;;;;;5057668;28;20051;-89
2021/12/12 02:20:41;;;;;;;31.27;18.13;;;;;;;;;;5057444;28;20127;-90
2021/12/12 02:23:24;;;;;;;35.40;19.25;;;;;;;;;;5056650;28;20058;-90
2021/12/12 02:36:55;;;;;;;29.48;16.45;;;;;;;;;;5057667;28;20064;-90
2021/12/12 02:39:21;;;;;;;30.77;17.42;;;;;;;;;;5056476;28;20021;-88
2021/12/12 02:44:56;;;;;;;28.88;16.20;;;;;;;;;;5057396;28;20079;-89
2021/12/12 02:47:31;;;;;;;30.20;17.27;;;;;;;;;;5057257;28;20029;-89
2021/12/12 02:50:09;;;;;;;26.13;15.70;;;;;;;;;;5057112;28;20021;-90
2021/12/12 02:52:36;;;;;;;28.25;16.15;;;;;;;;;;5055886;28;20390;-88
2021/12/12 02:55:06;;;;;;;28.10;16.25;;;;;;;;;;5055857;28;20125;-89
2021/12/12 03:00:44;;;;;;;26.65;16.05;;;;;;;;;;5059729;28;20031;-89
2021/12/12 03:03:10;;;;;;;32.33;15.98;;;;;;;;;;5049431;28;20120;-89
2021/12/12 03:05:37;;;;;;;27.05;16.15;;;;;;;;;;5061057;28;20378;-89
2021/12/12 03:08:04;;;;;;;24.25;15.88;;;;;;;;;;5061065;28;20025;-89
2021/12/12 03:10:32;;;;;;;28.27;15.93;;;;;;;;;;5061090;28;20025;-89
2021/12/12 03:12:58;;;;;;;28.02;15.38;;;;;;;;;;5061001;28;20096;-89
2021/12/12 03:15:27;;;;;;;25.90;16.48;;;;;;;;;;5059825;28;20394;-88
2021/12/12 03:17:54;;;;;;;26.20;15.45;;;;;;;;;;5059777;28;20025;-89
2021/12/12 03:20:32;;;;;;;25.77;15.10;;;;;;;;;;5060761;28;20032;-89
2021/12/12 03:23:04;;;;;;;25.60;14.90;;;;;;;;;;5060408;28;20027;-89
2021/12/12 03:25:32;;;;;;;30.15;15.77;;;;;;;;;;5059717;28;20040;-89
2021/12/12 03:27:58;;;;;;;25.95;15.85;;;;;;;;;;5060654;28;20029;-90
2021/12/12 03:30:24;;;;;;;26.77;15.20;;;;;;;;;;5060396;28;20021;-90
2021/12/12 03:32:51;;;;;;;26.88;16.58;;;;;;;;;;5059461;28;20025;-89
2021/12/12 03:35:17;;;;;;;27.85;16.73;;;;;;;;;;5060405;28;20060;-90
2021/12/12 03:37:43;;;;;;;27.27;15.70;;;;;;;;;;5059309;28;20473;-91
2021/12/12 03:40:15;;;;;;;26.27;15.13;;;;;;;;;;5059519;28;20112;-90
2021/12/12 03:42:43;;;;;;;26.80;15.80;;;;;;;;;;5059258;28;20354;-90
2021/12/12 03:45:09;;;;;;;26.85;14.73;;;;;;;;;;5060338;28;20079;-91
2021/12/12 03:47:40;;;;;;;27.50;16.35;;;;;;;;;;5060201;28;20024;-89
2021/12/12 03:50:10;;;;;;;24.88;14.93;;;;;;;;;;5058844;28;20419;-90
2021/12/12 03:52:36;;;;;;;30.48;14.45;;;;;;;;;;5060532;28;20040;-90
2021/12/12 03:55:04;;;;;;;28.00;15.40;;;;;;;;;;5060217;28;20025;-90
2021/12/12 04:00:53;;;;;;;26.58;14.93;;;;;;;;;;5040426;28;20339;-90
2021/12/12 04:03:21;;;;;;;25.63;15.02;;;;;;;;;;5039435;28;20077;-91
2021/12/12 04:05:54;;;;;;;24.65;15.13;;;;;;;;;;5040060;28;20072;-91
2021/12/12 04:11:27;;;;;;;29.30;16.17;;;;;;;;;;5039427;28;20163;-91
2021/12/12 04:13:55;;;;;;;29.35;14.00;;;;;;;;;;5039742;28;20044;-91
2021/12/12 04:16:21;;;;;;;28.63;16.25;;;;;;;;;;5040076;28;20407;-89
2021/12/12 04:18:48;;;;;;;26.60;16.02;;;;;;;;;;5038950;28;20029;-89
2021/12/12 04:24:03;;;;;;;26.38;16.23;;;;;;;;;;5040263;28;20060;-88
2021/12/12 04:29:35;;;;;;;27.55;15.25;;;;;;;;;;5039685;28;20052;-89
2021/12/12 04:32:04;;;;;;;27.20;14.82;;;;;;;;;;5038537;28;20037;-89
2021/12/12 04:34:31;;;;;;;26.70;15.82;;;;;;;;;;5039294;28;20045;-89
2021/12/12 04:37:00;;;;;;;28.67;16.63;;;;;;;;;;5039511;28;20311;-89
2021/12/12 04:39:28;;;;;;;29.33;16.65;;;;;;;;;;5038421;28;20029;-89
2021/12/12 04:41:59;;;;;;;27.77;16.67;;;;;;;;;;5039158;28;20068;-89
2021/12/12 04:44:29;;;;;;;28.20;17.25;;;;;;;;;;5040635;28;20056;-88
2021/12/12 04:52:35;;;;;;;32.00;17.55;;;;;;;;;;5059206;28;20114;-89
2021/12/12 05:07:40;;;;;;;29.63;15.82;;;;;;;;;;5026448;23;20070;-88
2021/12/12 05:16:20;;;;;;;29.27;16.45;;;;;;;;;;4960463;28;20038;-88
2021/12/12 05:18:51;;;;;;;30.05;16.35;;;;;;;;;;4960250;29;20031;-89
2021/12/12 05:21:24;;;;;;;28.48;16.13;;;;;;;;;;4960545;29;20043;-89
2021/12/12 05:23:50;;;;;;;30.33;16.80;;;;;;;;;;4955625;28;20114;-91
2021/12/12 05:26:19;;;;;;;31.70;16.85;;;;;;;;;;4962301;28;20081;-89
2021/12/12 05:32:01;;;;;;;28.37;16.77;;;;;;;;;;5009682;23;20059;-89
2021/12/12 05:34:30;;;;;;;31.40;17.80;;;;;;;;;;4979625;28;20284;-91
2021/12/12 05:36:57;;;;;;;31.50;17.35;;;;;;;;;;4979614;28;20098;-90
2021/12/12 05:39:24;;;;;;;28.38;16.92;;;;;;;;;;4962177;28;20023;-90
2021/12/12 05:41:52;;;;;;;27.98;15.82;;;;;;;;;;4979225;28;20039;-91
2021/12/12 05:44:18;;;;;;;29.83;17.27;;;;;;;;;;4978931;28;20018;-89
2021/12/12 05:46:44;;;;;;;30.48;16.98;;;;;;;;;;4979428;28;20026;-90
2021/12/12 05:49:13;;;;;;;29.65;17.75;;;;;;;;;;4979158;28;20142;-90
2021/12/12 06:06:00;;;;;;;36.95;19.45;;;;;;;;;;5023989;23;20058;-88
2021/12/12 20:05:22;;;;;;;41.22;23.50;;;;;;;;;;5285972;23;20063;-81
2021/12/12 20:20:58;;;;;;;47.92;29.50;;;;;;;;;;4948070;29;20059;-85
2021/12/12 20:26:46;;;;;;;37.72;24.23;;;;;;;;;;5021600;23;20407;-84
2021/12/12 20:29:16;;;;;;;43.35;24.02;;;;;;;;;;4942356;29;20032;-83
2021/12/12 20:37:13;;;;;;;42.95;25.27;;;;;;;;;;4942602;29;20432;-84
2021/12/12 20:39:42;;;;;;;35.50;22.67;;;;;;;;;;4925050;29;20078;-84
2021/12/12 20:54:04;;;;;;;40.30;22.88;;;;;;;;;;4922634;29;20080;-85
2021/12/12 20:56:34;;;;;;;37.38;21.23;;;;;;;;;;4905468;29;20107;-85
2021/12/12 20:59:03;;;;;;;33.60;20.33;;;;;;;;;;4922774;29;20027;-85
2021/12/12 21:01:33;;;;;;;37.47;20.75;;;;;;;;;;4922287;29;20470;-84
2021/12/12 21:04:04;;;;;;;32.97;20.15;;;;;;;;;;4922502;29;20076;-85
2021/12/12 21:06:36;;;;;;;36.15;19.98;;;;;;;;;;4922329;29;20031;-84
2021/12/12 21:12:09;;;;;;;33.42;19.42;;;;;;;;;;4922506;29;20038;-89
2021/12/12 21:14:37;;;;;;;42.50;23.65;;;;;;;;;;4905230;29;20035;-89
2021/12/12 21:17:06;;;;;;;36.53;22.65;;;;;;;;;;4905317;29;20021;-88
2021/12/12 21:19:34;;;;;;;34.92;21.90;;;;;;;;;;4921469;29;20044;-91
2021/12/12 21:22:00;;;;;;;36.85;22.02;;;;;;;;;;4886839;29;20020;-88
2021/12/12 21:24:29;;;;;;;37.45;24.05;;;;;;;;;;4902926;29;20115;-88
2021/12/12 21:26:58;;;;;;;36.25;23.27;;;;;;;;;;4886537;29;20045;-89
2021/12/12 21:29:26;;;;;;;43.78;26.58;;;;;;;;;;4903546;29;20036;-88
2021/12/12 21:31:54;;;;;;;52.20;31.02;;;;;;;;;;4886325;29;20420;-88
2021/12/12 21:34:23;;;;;;;53.60;29.73;;;;;;;;;;4906979;29;20032;-87
2021/12/12 21:36:52;;;;;;;50.28;29.08;;;;;;;;;;4912946;29;20040;-89
2021/12/12 21:42:40;;;;;;;40.22;24.98;;;;;;;;;;4994984;23;20406;-90
2021/12/12 21:48:11;;;;;;;49.35;27.90;;;;;;;;;;4961080;29;20074;-87
2021/12/12 21:50:37;;;;;;;38.53;23.98;;;;;;;;;;4960834;28;20030;-88
2021/12/12 21:56:07;;;;;;;37.30;23.13;;;;;;;;;;4963861;23;20363;-87
2021/12/12 22:04:32;;;;;;;32.17;20.63;;;;;;;;;;4959485;23;20055;-86
2021/12/12 22:07:03;;;;;;;33.72;21.27;;;;;;;;;;4939289;29;20047;-87
2021/12/12 22:09:42;;;;;;;33.45;21.38;;;;;;;;;;4939967;29;20031;-87
2021/12/12 22:12:13;;;;;;;38.00;24.02;;;;;;;;;;4940286;29;20403;-86
2021/12/12 22:14:46;;;;;;;40.17;24.90;;;;;;;;;;4923193;29;20032;-86
2021/12/12 22:20:15;;;;;;;36.58;21.63;;;;;;;;;;4940576;29;20047;-86
2021/12/12 22:22:46;;;;;;;38.47;21.38;;;;;;;;;;4921345;29;20463;-87
2021/12/12 22:25:19;;;;;;;35.00;20.88;;;;;;;;;;4939594;29;20024;-87
2021/12/12 22:27:47;;;;;;;37.00;21.42;;;;;;;;;;4940221;29;20469;-88
2021/12/12 22:33:18;;;;;;;28.25;18.27;;;;;;;;;;4940248;29;20086;-87
2021/12/12 22:35:49;;;;;;;33.25;18.27;;;;;;;;;;4955237;28;20062;-86
2021/12/12 22:38:18;;;;;;;28.85;18.10;;;;;;;;;;4952043;28;20062;-86
2021/12/12 22:40:47;;;;;;;30.38;18.70;;;;;;;;;;4940280;29;20411;-87
2021/12/12 23:13:20;;;;;;;26.92;17.13;;;;;;;;;;4969475;23;20386;-89
2021/12/12 23:15:52;;;;;;;29.92;18.45;;;;;;;;;;4938876;29;20044;-88
2021/12/12 23:18:24;;;;;;;29.92;19.00;;;;;;;;;;4942972;29;20383;-87
2021/12/12 23:21:08;;;;;;;28.40;18.08;;;;;;;;;;4927115;29;20032;-87
2021/12/12 23:24:11;;;;;;;34.55;23.10;;;;;;;;;;4943774;29;20050;-88
2021/12/12 23:26:40;;;;;;;29.90;18.30;;;;;;;;;;4848095;29;20034;-87
2021/12/12 23:32:00;;;;;;;32.95;19.23;;;;;;;;;;4847952;29;20163;-87
2021/12/12 23:34:29;;;;;;;30.02;17.58;;;;;;;;;;4832535;29;20124;-88
2021/12/12 23:37:03;;;;;;;28.67;16.83;;;;;;;;;;4832381;29;20395;-86
2021/12/12 23:39:36;;;;;;;31.60;19.23;;;;;;;;;;4832307;29;20034;-86
2021/12/12 23:42:24;;;;;;;27.98;17.58;;;;;;;;;;4847846;29;20046;-86
2021/12/12 23:44:56;;;;;;;31.75;18.92;;;;;;;;;;4832139;29;20037;-85
2021/12/12 23:47:30;;;;;;;32.33;21.17;;;;;;;;;;4832415;29;20117;-86
2021/12/12 23:49:59;;;;;;;28.20;17.23;;;;;;;;;;4832197;29;20129;-87
2021/12/12 23:52:33;;;;;;;27.80;17.27;;;;;;;;;;4847552;29;20038;-85
2021/12/12 23:55:28;;;;;;;30.45;17.90;;;;;;;;;;4832051;29;20067;-86
2021/12/12 23:58:00;;;;;;;26.73;18.02;;;;;;;;;;4775083;29;20078;-87
